createdAt,value
2022-09-03T00:00:56.794Z,55.55
2022-09-03T00:01:56.827Z,55.85
2022-09-03T00:02:56.827Z,55.57
2022-09-03T00:03:56.770Z,55.55
2022-09-03T00:04:56.729Z,55.44
2022-09-03T00:05:56.730Z,55.75
2022-09-03T00:06:56.684Z,55.55
2022-09-03T00:07:56.702Z,56.18
2022-09-03T00:08:56.644Z,55.68
2022-09-03T00:09:56.672Z,55.75
2022-09-03T00:10:56.632Z,55.65
2022-09-03T00:11:56.609Z,56.08
2022-09-03T00:12:56.621Z,55.55
2022-09-03T00:13:56.585Z,55.85
2022-09-03T00:14:56.579Z,55.55
2022-09-03T00:15:56.560Z,55.65
2022-09-03T00:16:56.522Z,55.44
2022-09-03T00:17:56.527Z,55.88
2022-09-03T00:18:56.480Z,55.95
2022-09-03T00:19:56.487Z,55.98
2022-09-03T00:20:56.443Z,55.95
2022-09-03T00:21:56.427Z,56.05
2022-09-03T00:22:56.442Z,55.98
2022-09-03T00:23:56.388Z,55.88
2022-09-03T00:24:56.482Z,56.08
2022-09-03T00:25:56.434Z,56.15
2022-09-03T00:26:56.371Z,55.57
2022-09-03T00:27:56.373Z,56.38
2022-09-03T00:28:56.332Z,56.08
2022-09-03T00:29:56.321Z,56.28
2022-09-03T00:30:56.299Z,56.48
2022-09-03T00:31:56.261Z,55.98
2022-09-03T00:32:56.272Z,55.68
2022-09-03T00:33:56.236Z,55.88
2022-09-03T00:34:56.218Z,55.88
2022-09-03T00:35:56.225Z,55.88
2022-09-03T00:36:56.252Z,55.88
2022-09-03T00:37:56.198Z,55.98
2022-09-03T00:38:56.154Z,55.90
2022-09-03T00:39:56.172Z,56.18
2022-09-03T00:40:56.120Z,55.77
2022-09-03T00:41:56.100Z,55.90
2022-09-03T00:42:56.132Z,55.88
2022-09-03T00:43:56.076Z,56.08
2022-09-03T00:44:56.045Z,56.69
2022-09-03T00:45:56.119Z,57.09
2022-09-03T00:46:56.046Z,56.69
2022-09-03T00:48:29.969Z,55.98
2022-09-03T00:48:55.962Z,57.22
2022-09-03T00:49:55.961Z,56.99
2022-09-03T00:50:55.937Z,56.79
2022-09-03T00:51:55.915Z,56.48
2022-09-03T00:52:55.991Z,56.48
2022-09-03T00:53:55.885Z,56.41
2022-09-03T00:54:55.877Z,57.02
2022-09-03T00:55:55.897Z,56.92
2022-09-03T00:56:55.847Z,57.53
2022-09-03T00:57:55.861Z,57.22
2022-09-03T00:58:55.842Z,56.92
2022-09-03T00:59:55.821Z,57.02
2022-09-03T01:00:55.797Z,57.12
2022-09-03T01:01:55.889Z,56.82
2022-09-03T01:02:55.862Z,57.02
2022-09-03T01:03:55.731Z,56.82
2022-09-03T01:04:55.712Z,57.02
2022-09-03T01:06:01.013Z,57.02
2022-09-03T01:06:57.709Z,56.61
2022-09-03T01:07:55.686Z,56.71
2022-09-03T01:08:55.639Z,57.12
2022-09-03T01:09:55.738Z,56.69
2022-09-03T01:10:55.618Z,56.61
2022-09-03T01:11:55.596Z,56.69
2022-09-03T01:12:55.923Z,56.79
2022-09-03T01:13:55.562Z,56.61
2022-09-03T01:14:55.559Z,56.59
2022-09-03T01:15:55.604Z,56.61
2022-09-03T01:16:55.522Z,56.51
2022-09-03T01:17:55.530Z,56.59
2022-09-03T01:18:55.490Z,56.38
2022-09-03T01:19:55.459Z,56.59
2022-09-03T01:20:55.549Z,56.71
2022-09-03T01:21:55.456Z,56.79
2022-09-03T01:22:55.459Z,56.59
2022-09-03T01:23:55.414Z,56.79
2022-09-03T01:24:55.382Z,57.02
2022-09-03T01:25:55.449Z,57.53
2022-09-03T01:26:55.349Z,57.02
2022-09-03T01:27:55.360Z,57.12
2022-09-03T01:28:55.310Z,57.02
2022-09-03T01:29:55.310Z,56.82
2022-09-03T01:30:55.315Z,56.82
2022-09-03T01:31:55.303Z,57.02
2022-09-03T01:32:55.281Z,56.71
2022-09-03T01:33:55.249Z,56.48
2022-09-03T01:34:55.239Z,56.82
2022-09-03T01:35:55.195Z,56.69
2022-09-03T01:36:55.198Z,56.61
2022-09-03T01:37:55.207Z,56.79
2022-09-03T01:38:55.163Z,56.71
2022-09-03T01:39:55.194Z,57.22
2022-09-03T01:40:55.125Z,57.22
2022-09-03T01:41:55.091Z,57.22
2022-09-03T01:42:55.233Z,57.12
2022-09-03T01:43:55.068Z,57.32
2022-09-03T01:44:55.062Z,57.53
2022-09-03T01:45:55.191Z,57.62
2022-09-03T01:46:55.013Z,57.83
2022-09-03T01:47:55.080Z,57.32
2022-09-03T01:48:54.984Z,57.62
2022-09-03T01:49:54.978Z,57.83
2022-09-03T01:50:54.946Z,57.53
2022-09-03T01:51:54.939Z,58.13
2022-09-03T01:52:54.958Z,58.34
2022-09-03T01:53:54.972Z,57.73
2022-09-03T01:54:54.882Z,58.03
2022-09-03T01:55:55.001Z,58.13
2022-09-03T01:56:54.855Z,57.53
2022-09-03T01:57:54.868Z,57.73
2022-09-03T01:58:54.826Z,57.65
2022-09-03T01:59:54.796Z,57.62
2022-09-03T02:00:54.794Z,57.62
2022-09-03T02:01:54.776Z,57.53
2022-09-03T02:02:54.944Z,57.53
2022-09-03T02:03:54.739Z,57.53
2022-09-03T02:04:54.805Z,58.34
2022-09-03T02:05:54.708Z,58.13
2022-09-03T02:06:54.689Z,58.34
2022-09-03T02:07:54.697Z,58.13
2022-09-03T02:08:54.648Z,57.93
2022-09-03T02:09:54.637Z,57.96
2022-09-03T02:10:54.620Z,57.86
2022-09-03T02:11:54.599Z,58.16
2022-09-03T02:12:54.610Z,57.96
2022-09-03T02:13:54.565Z,57.96
2022-09-03T02:14:54.549Z,57.93
2022-09-03T02:15:54.636Z,57.55
2022-09-03T02:16:54.518Z,57.73
2022-09-03T02:17:54.535Z,57.62
2022-09-03T02:18:54.489Z,58.16
2022-09-03T02:19:54.515Z,57.86
2022-09-03T02:20:54.445Z,58.26
2022-09-03T02:21:54.443Z,58.26
2022-09-03T02:22:54.452Z,58.26
2022-09-03T02:23:54.405Z,57.96
2022-09-03T02:24:54.373Z,58.36
2022-09-03T02:25:54.425Z,58.36
2022-09-03T02:26:54.409Z,57.86
2022-09-03T02:27:54.374Z,58.16
2022-09-03T02:28:54.308Z,58.26
2022-09-03T02:29:54.301Z,58.26
2022-09-03T02:30:54.344Z,58.56
2022-09-03T02:31:54.269Z,58.67
2022-09-03T02:32:54.277Z,58.56
2022-09-03T02:33:54.230Z,58.47
2022-09-03T02:34:54.222Z,58.76
2022-09-03T02:35:54.422Z,58.76
2022-09-03T02:36:54.185Z,58.76
2022-09-03T02:37:54.309Z,58.76
2022-09-03T02:38:54.151Z,58.56
2022-09-03T02:39:54.176Z,58.47
2022-09-03T02:40:54.123Z,59.00
2022-09-03T02:41:54.096Z,58.97
2022-09-03T02:42:54.124Z,58.56
2022-09-03T02:43:54.082Z,58.76
2022-09-03T02:44:54.055Z,58.80
2022-09-03T02:45:54.124Z,58.59
2022-09-03T02:46:54.016Z,58.90
2022-09-03T02:47:54.037Z,58.90
2022-09-03T02:48:54.076Z,58.90
2022-09-03T02:49:53.977Z,58.90
2022-09-03T02:50:53.968Z,59.50
2022-09-03T02:51:53.939Z,59.41
2022-09-03T02:52:53.956Z,59.50
2022-09-03T02:53:53.899Z,59.50
2022-09-03T02:54:53.895Z,58.80
2022-09-03T02:55:53.910Z,59.61
2022-09-03T02:56:53.865Z,59.61
2022-09-03T02:57:53.877Z,58.90
2022-09-03T02:58:53.831Z,59.10
2022-09-03T02:59:53.819Z,59.10
2022-09-03T03:00:53.831Z,59.10
2022-09-03T03:01:53.767Z,58.90
2022-09-03T03:02:53.839Z,59.33
2022-09-03T03:03:53.754Z,59.23
2022-09-03T03:04:53.727Z,59.20
2022-09-03T03:05:53.730Z,59.30
2022-09-03T03:06:53.728Z,59.20
2022-09-03T03:07:53.704Z,59.33
2022-09-03T03:08:53.657Z,59.03
2022-09-03T03:09:53.646Z,59.10
2022-09-03T03:10:53.728Z,59.63
2022-09-03T03:11:53.615Z,59.10
2022-09-03T03:12:53.659Z,59.03
2022-09-03T03:13:53.580Z,59.53
2022-09-03T03:14:53.555Z,59.43
2022-09-03T03:15:53.565Z,59.41
2022-09-03T03:16:54.668Z,59.61
2022-09-03T03:17:53.557Z,59.53
2022-09-03T03:18:53.507Z,59.43
2022-09-03T03:19:53.479Z,59.43
2022-09-03T03:20:53.472Z,59.53
2022-09-03T03:21:53.480Z,59.84
2022-09-03T03:22:53.459Z,59.74
2022-09-03T03:23:53.416Z,59.74
2022-09-03T03:24:53.411Z,59.63
2022-09-03T03:25:53.393Z,59.63
2022-09-03T03:26:53.369Z,59.74
2022-09-03T03:27:53.380Z,59.74
2022-09-03T03:28:53.323Z,59.84
2022-09-03T03:29:53.324Z,59.63
2022-09-03T03:30:53.328Z,59.74
2022-09-03T03:31:53.285Z,59.84
2022-09-03T03:32:53.379Z,60.14
2022-09-03T03:33:53.263Z,60.44
2022-09-03T03:34:53.257Z,60.04
2022-09-03T03:35:53.245Z,59.94
2022-09-03T03:36:53.215Z,59.74
2022-09-03T03:37:53.224Z,59.84
2022-09-03T03:38:53.180Z,59.94
2022-09-03T03:39:53.197Z,59.63
2022-09-03T03:40:53.143Z,59.63
2022-09-03T03:41:53.108Z,59.94
2022-09-03T03:42:53.212Z,59.84
2022-09-03T03:43:53.103Z,59.86
2022-09-03T03:44:53.072Z,59.53
2022-09-03T03:45:53.144Z,59.94
2022-09-03T03:46:53.033Z,59.63
2022-09-03T03:47:53.041Z,59.77
2022-09-03T03:48:53.000Z,59.86
2022-09-03T03:49:52.975Z,60.14
2022-09-03T03:50:53.059Z,59.97
2022-09-03T03:51:52.954Z,60.17
2022-09-03T03:52:52.974Z,59.97
2022-09-03T03:53:52.945Z,60.17
2022-09-03T03:54:52.881Z,59.86
2022-09-03T03:55:52.895Z,60.27
2022-09-03T03:56:55.826Z,60.14
2022-09-03T03:57:52.882Z,60.14
2022-09-03T03:58:52.827Z,59.94
2022-09-03T03:59:52.813Z,60.35
2022-09-03T04:00:52.832Z,60.17
2022-09-03T04:01:52.777Z,60.14
2022-09-03T04:02:52.901Z,60.17
2022-09-03T04:03:52.742Z,60.14
2022-09-03T04:04:52.746Z,59.97
2022-09-03T04:05:52.762Z,60.35
2022-09-03T04:06:52.710Z,60.65
2022-09-03T04:07:52.722Z,60.37
2022-09-03T04:08:52.672Z,60.88
2022-09-03T04:09:52.651Z,61.18
2022-09-03T04:10:52.675Z,60.35
2022-09-03T04:11:52.608Z,60.88
2022-09-03T04:12:52.624Z,60.17
2022-09-03T04:13:52.573Z,60.04
2022-09-03T04:14:52.571Z,60.78
2022-09-03T04:15:52.565Z,60.17
2022-09-03T04:16:52.646Z,60.17
2022-09-03T04:17:52.554Z,61.08
2022-09-03T04:18:52.498Z,60.88
2022-09-03T04:19:52.482Z,60.78
2022-09-03T04:20:52.457Z,61.08
2022-09-03T04:21:52.454Z,60.55
2022-09-03T04:22:52.454Z,60.35
2022-09-03T04:23:52.414Z,61.08
2022-09-03T04:24:52.398Z,60.78
2022-09-03T04:25:52.413Z,60.14
2022-09-03T04:26:52.355Z,61.08
2022-09-03T04:27:52.358Z,60.78
2022-09-03T04:28:52.364Z,60.68
2022-09-03T04:29:52.325Z,60.17
2022-09-03T04:30:52.383Z,60.95
2022-09-03T04:31:52.280Z,60.14
2022-09-03T04:32:52.579Z,60.37
2022-09-03T04:33:52.279Z,60.65
2022-09-03T04:34:52.240Z,60.88
2022-09-03T04:35:52.247Z,61.49
2022-09-03T04:36:52.986Z,60.68
2022-09-03T04:37:53.184Z,60.78
2022-09-03T04:38:52.223Z,60.58
2022-09-03T04:39:52.246Z,60.98
2022-09-03T04:40:52.129Z,61.08
2022-09-03T04:41:52.109Z,60.88
2022-09-03T04:42:52.098Z,60.88
2022-09-03T04:43:52.117Z,61.18
2022-09-03T04:44:52.112Z,60.88
2022-09-03T04:45:52.105Z,60.98
2022-09-03T04:46:52.023Z,60.68
2022-09-03T04:47:52.016Z,61.32
2022-09-03T04:48:52.031Z,61.32
2022-09-03T04:49:51.983Z,60.98
2022-09-03T04:50:51.959Z,61.72
2022-09-03T04:51:51.950Z,60.98
2022-09-03T04:52:52.017Z,60.71
2022-09-03T04:53:51.950Z,62.13
2022-09-03T04:54:51.983Z,61.32
2022-09-03T04:55:51.952Z,61.01
2022-09-03T04:56:51.977Z,61.62
2022-09-03T04:57:52.021Z,61.32
2022-09-03T04:58:51.852Z,61.93
2022-09-03T04:59:51.798Z,62.02
2022-09-03T05:00:51.931Z,61.32
2022-09-03T05:01:51.792Z,62.13
2022-09-03T05:02:51.766Z,61.18
2022-09-03T05:03:51.799Z,61.46
2022-09-03T05:04:51.773Z,59.48
2022-09-03T05:05:52.538Z,59.01
2022-09-03T05:06:52.686Z,58.28
2022-09-03T05:07:51.686Z,57.42
2022-09-03T05:08:51.707Z,56.30
2022-09-03T05:09:51.652Z,55.85
2022-09-03T05:10:51.620Z,54.41
2022-09-03T05:11:51.617Z,54.08
2022-09-03T05:12:51.591Z,53.55
2022-09-03T05:13:51.607Z,51.91
2022-09-03T05:14:51.563Z,51.68
2022-09-03T05:15:51.564Z,51.66
2022-09-03T05:16:52.778Z,51.21
2022-09-03T05:17:51.509Z,49.40
2022-09-03T05:18:51.526Z,49.88
2022-09-03T05:19:51.491Z,49.15
2022-09-03T05:20:51.454Z,48.52
2022-09-03T05:21:51.435Z,47.80
2022-09-03T05:22:51.434Z,46.57
2022-09-03T05:23:51.432Z,46.25
2022-09-03T05:24:51.398Z,45.40
2022-09-03T05:25:51.381Z,45.08
2022-09-03T05:26:51.367Z,45.56
2022-09-03T05:27:51.340Z,44.93
2022-09-03T05:28:51.347Z,44.51
2022-09-03T05:29:51.319Z,43.49
2022-09-03T05:30:51.294Z,42.87
2022-09-03T05:31:51.325Z,42.68
2022-09-03T05:32:51.260Z,42.27
2022-09-03T05:33:51.301Z,42.05
2022-09-03T05:34:51.229Z,41.36
2022-09-03T05:35:51.204Z,41.93
2022-09-03T05:36:51.180Z,41.24
2022-09-03T05:37:51.161Z,41.05
2022-09-03T05:38:51.189Z,41.75
2022-09-03T05:39:51.172Z,41.03
2022-09-03T05:40:51.156Z,41.19
2022-09-03T05:41:51.110Z,39.78
2022-09-03T05:42:51.073Z,39.66
2022-09-03T05:43:51.089Z,39.25
2022-09-03T05:44:51.047Z,39.54
2022-09-03T05:45:51.130Z,38.54
2022-09-03T05:46:51.008Z,38.95
2022-09-03T05:47:51.003Z,39.54
2022-09-03T05:48:51.011Z,39.16
2022-09-03T05:49:50.961Z,39.16
2022-09-03T05:50:50.949Z,39.30
2022-09-03T05:51:50.955Z,40.01
2022-09-03T05:52:50.932Z,40.22
2022-09-03T05:53:50.922Z,41.09
2022-09-03T05:54:50.874Z,39.88
2022-09-03T05:55:50.865Z,38.96
2022-09-03T05:56:50.863Z,38.93
2022-09-03T05:57:50.837Z,38.43
2022-09-03T05:58:50.904Z,38.91
2022-09-03T05:59:50.931Z,38.01
2022-09-03T06:00:50.786Z,38.51
2022-09-03T06:01:53.758Z,38.21
2022-09-03T06:02:51.841Z,37.51
2022-09-03T06:03:51.109Z,38.01
2022-09-03T06:04:50.789Z,37.10
2022-09-03T06:05:50.697Z,38.21
2022-09-03T06:06:50.688Z,38.11
2022-09-03T06:07:50.660Z,38.07
2022-09-03T06:08:50.691Z,37.28
2022-09-03T06:09:50.644Z,37.64
2022-09-03T06:10:50.609Z,35.64
2022-09-03T06:11:50.607Z,36.25
2022-09-03T06:12:50.572Z,36.85
2022-09-03T06:13:50.622Z,36.11
2022-09-03T06:14:50.544Z,35.58
2022-09-03T06:15:50.547Z,35.17
2022-09-03T06:16:50.646Z,34.48
2022-09-03T06:17:50.499Z,34.66
2022-09-03T06:18:50.515Z,34.73
2022-09-03T06:19:50.527Z,34.10
2022-09-03T06:20:50.461Z,34.00
2022-09-03T06:21:50.442Z,33.59
2022-09-03T06:22:50.431Z,32.90
2022-09-03T06:23:50.460Z,32.93
2022-09-03T06:24:50.392Z,34.03
2022-09-03T06:25:50.389Z,33.73
2022-09-03T06:26:50.365Z,34.12
2022-09-03T06:27:50.332Z,33.80
2022-09-03T06:28:50.365Z,33.80
2022-09-03T06:29:50.322Z,33.51
2022-09-03T06:30:50.294Z,33.77
2022-09-03T06:31:50.360Z,32.90
2022-09-03T06:32:50.255Z,33.08
2022-09-03T06:33:50.281Z,32.57
2022-09-03T06:34:50.233Z,32.37
2022-09-03T06:35:50.325Z,31.98
2022-09-03T06:36:50.221Z,31.65
2022-09-03T06:37:50.184Z,31.65
2022-09-03T06:38:50.203Z,32.16
2022-09-03T06:39:50.238Z,31.57
2022-09-03T06:40:50.186Z,32.32
2022-09-03T06:41:50.118Z,30.55
2022-09-03T06:42:50.139Z,30.45
2022-09-03T06:43:50.129Z,31.44
2022-09-03T06:44:50.160Z,30.45
2022-09-03T06:45:50.144Z,31.83
2022-09-03T06:46:50.044Z,30.55
2022-09-03T06:47:50.051Z,31.04
2022-09-03T06:49:23.590Z,31.99
2022-09-03T06:49:50.009Z,32.80
2022-09-03T06:50:49.998Z,31.50
2022-09-03T06:51:49.988Z,32.68
2022-09-03T06:52:49.955Z,32.75
2022-09-03T06:53:49.987Z,31.96
2022-09-03T06:54:49.941Z,32.16
2022-09-03T06:55:49.929Z,31.90
2022-09-03T06:56:49.928Z,32.31
2022-09-03T06:57:52.812Z,33.73
2022-09-03T06:58:49.922Z,33.84
2022-09-03T06:59:49.882Z,33.24
2022-09-03T07:00:49.918Z,33.72
2022-09-03T07:01:49.903Z,32.50
2022-09-03T07:02:50.021Z,32.92
2022-09-03T07:03:49.827Z,32.83
2022-09-03T07:04:49.796Z,34.31
2022-09-03T07:05:49.781Z,33.84
2022-09-03T07:06:49.773Z,34.31
2022-09-03T07:07:49.741Z,33.42
2022-09-03T07:08:49.740Z,34.34
2022-09-03T07:09:49.696Z,34.33
2022-09-03T07:10:49.683Z,34.15
2022-09-03T07:11:49.670Z,33.84
2022-09-03T07:12:49.655Z,34.01
2022-09-03T07:13:49.674Z,34.00
2022-09-03T07:14:51.126Z,32.47
2022-09-03T07:15:49.658Z,32.10
2022-09-03T07:16:49.607Z,33.41
2022-09-03T07:17:49.566Z,34.10
2022-09-03T07:18:49.596Z,33.69
2022-09-03T07:19:49.553Z,32.65
2022-09-03T07:20:49.513Z,33.94
2022-09-03T07:21:50.706Z,33.73
2022-09-03T07:22:50.504Z,33.01
2022-09-03T07:23:49.500Z,33.00
2022-09-03T07:24:49.452Z,33.84
2022-09-03T07:25:49.437Z,34.13
2022-09-03T07:26:49.455Z,34.33
2022-09-03T07:27:49.403Z,34.13
2022-09-03T07:28:49.414Z,33.54
2022-09-03T07:29:49.373Z,34.34
2022-09-03T07:30:49.376Z,34.95
2022-09-03T07:31:49.392Z,34.94
2022-09-03T07:32:49.337Z,33.14
2022-09-03T07:33:49.338Z,33.51
2022-09-03T07:34:49.296Z,32.50
2022-09-03T07:35:49.273Z,32.26
2022-09-03T07:36:49.265Z,31.76
2022-09-03T07:37:49.243Z,31.75
2022-09-03T07:38:49.252Z,31.52
2022-09-03T07:39:49.284Z,31.01
2022-09-03T07:40:49.192Z,31.01
2022-09-03T07:41:49.185Z,30.40
2022-09-03T07:42:52.109Z,29.41
2022-09-03T07:43:51.174Z,30.31
2022-09-03T07:44:49.137Z,30.00
2022-09-03T07:45:49.169Z,30.02
2022-09-03T07:46:49.204Z,30.71
2022-09-03T07:47:49.082Z,29.99
2022-09-03T07:48:49.101Z,29.28
2022-09-03T07:49:49.041Z,29.69
2022-09-03T07:50:49.031Z,30.19
2022-09-03T07:51:49.006Z,29.39
2022-09-03T07:52:49.015Z,29.59
2022-09-03T07:53:49.021Z,29.19
2022-09-03T07:54:49.027Z,28.89
2022-09-03T07:55:49.957Z,29.79
2022-09-03T07:56:48.942Z,29.51
2022-09-03T07:57:48.940Z,30.03
2022-09-03T07:58:48.949Z,32.37
2022-09-03T07:59:48.908Z,32.37
2022-09-03T08:00:48.935Z,31.95
2022-09-03T08:01:48.895Z,31.83
2022-09-03T08:02:48.854Z,31.11
2022-09-03T08:03:48.930Z,30.28
2022-09-03T08:04:48.835Z,29.99
2022-09-03T08:05:48.799Z,29.59
2022-09-03T08:06:48.784Z,29.80
2022-09-03T08:07:48.779Z,29.90
2022-09-03T08:08:48.798Z,29.62
2022-09-03T08:09:48.758Z,29.89
2022-09-03T08:10:48.737Z,30.49
2022-09-03T08:11:48.736Z,29.39
2022-09-03T08:12:48.702Z,30.47
2022-09-03T08:13:48.721Z,28.96
2022-09-03T08:14:48.668Z,28.34
2022-09-03T08:15:48.697Z,28.15
2022-09-03T08:16:48.643Z,27.67
2022-09-03T08:17:48.631Z,28.45
2022-09-03T08:18:48.643Z,28.16
2022-09-03T08:19:48.631Z,28.88
2022-09-03T08:20:48.587Z,29.39
2022-09-03T08:21:49.572Z,30.00
2022-09-03T08:22:48.555Z,29.89
2022-09-03T08:23:48.563Z,29.19
2022-09-03T08:24:48.527Z,29.17
2022-09-03T08:25:48.517Z,29.45
2022-09-03T08:26:52.171Z,29.07
2022-09-03T08:27:49.481Z,29.17
2022-09-03T08:28:48.511Z,29.89
2022-09-03T08:29:48.457Z,29.19
2022-09-03T08:30:48.447Z,29.48
2022-09-03T08:31:48.496Z,29.86
2022-09-03T08:32:48.413Z,28.65
2022-09-03T08:33:48.428Z,28.12
2022-09-03T08:34:48.394Z,28.20
2022-09-03T08:35:48.364Z,28.61
2022-09-03T08:36:48.352Z,27.44
2022-09-03T08:37:48.330Z,28.31
2022-09-03T08:38:48.364Z,27.94
2022-09-03T08:39:48.350Z,28.13
2022-09-03T08:40:48.304Z,28.53
2022-09-03T08:41:48.281Z,28.13
2022-09-03T08:42:48.262Z,28.12
2022-09-03T08:43:48.318Z,27.81
2022-09-03T08:44:48.260Z,27.70
2022-09-03T08:45:48.226Z,27.69
2022-09-03T08:46:48.303Z,27.08
2022-09-03T08:47:48.216Z,25.98
2022-09-03T08:48:48.225Z,26.68
2022-09-03T08:49:48.179Z,27.33
2022-09-03T08:50:48.154Z,28.25
2022-09-03T08:51:48.143Z,29.55
2022-09-03T08:52:48.218Z,30.04
2022-09-03T08:53:48.153Z,28.88
2022-09-03T08:54:48.093Z,29.05
2022-09-03T08:55:48.077Z,28.13
2022-09-03T08:56:48.074Z,28.22
2022-09-03T08:57:48.056Z,28.02
2022-09-03T08:58:48.071Z,27.73
2022-09-03T08:59:48.020Z,28.41
2022-09-03T09:00:48.028Z,28.18
2022-09-03T09:01:48.113Z,27.38
2022-09-03T09:02:48.027Z,26.00
2022-09-03T09:03:48.044Z,27.09
2022-09-03T09:04:47.973Z,27.42
2022-09-03T09:05:47.939Z,28.41
2022-09-03T09:06:47.934Z,28.65
2022-09-03T09:07:47.912Z,28.03
2022-09-03T09:08:47.950Z,28.34
2022-09-03T09:09:47.899Z,28.41
2022-09-03T09:10:47.872Z,28.19
2022-09-03T09:11:47.884Z,26.70
2022-09-03T09:12:47.869Z,27.76
2022-09-03T09:13:47.851Z,26.97
2022-09-03T09:14:47.812Z,26.29
2022-09-03T09:15:47.872Z,27.36
2022-09-03T09:16:47.794Z,26.01
2022-09-03T09:17:47.778Z,26.90
2022-09-03T09:18:47.783Z,27.77
2022-09-03T09:19:48.774Z,27.49
2022-09-03T09:20:47.726Z,27.73
2022-09-03T09:21:47.713Z,28.26
2022-09-03T09:22:47.710Z,28.47
2022-09-03T09:23:47.714Z,28.36
2022-09-03T09:24:47.672Z,28.12
2022-09-03T09:25:47.658Z,26.72
2022-09-03T09:26:47.640Z,27.87
2022-09-03T09:27:47.624Z,27.38
2022-09-03T09:28:47.651Z,27.49
2022-09-03T09:29:47.602Z,27.59
2022-09-03T09:30:47.659Z,27.42
2022-09-03T09:31:47.577Z,27.73
2022-09-03T09:32:47.567Z,27.72
2022-09-03T09:33:47.576Z,27.94
2022-09-03T09:34:51.827Z,28.16
2022-09-03T09:35:48.517Z,27.75
2022-09-03T09:36:47.540Z,28.13
2022-09-03T09:37:47.491Z,27.83
2022-09-03T09:38:47.506Z,27.42
2022-09-03T09:39:47.519Z,27.63
2022-09-03T09:40:47.454Z,27.92
2022-09-03T09:41:47.438Z,27.11
2022-09-03T09:42:48.425Z,26.83
2022-09-03T09:43:47.440Z,27.90
2022-09-03T09:44:47.404Z,26.90
2022-09-03T09:45:47.452Z,27.44
2022-09-03T09:46:50.246Z,28.36
2022-09-03T09:47:48.350Z,29.76
2022-09-03T09:48:47.364Z,29.57
2022-09-03T09:49:47.317Z,28.59
2022-09-03T09:50:47.304Z,29.20
2022-09-03T09:51:47.289Z,29.61
2022-09-03T09:52:48.220Z,30.40
2022-09-03T09:53:47.290Z,30.51
2022-09-03T09:54:47.249Z,30.62
2022-09-03T09:55:47.235Z,30.71
2022-09-03T09:56:47.218Z,29.87
2022-09-03T09:57:47.190Z,29.25
2022-09-03T09:58:47.216Z,29.24
2022-09-03T09:59:47.178Z,28.88
2022-09-03T10:00:47.147Z,29.19
2022-09-03T10:01:47.259Z,30.21
2022-09-03T10:02:47.205Z,31.11
2022-09-03T10:03:47.167Z,30.35
2022-09-03T10:04:47.091Z,31.83
2022-09-03T10:05:47.073Z,32.54
2022-09-03T10:06:47.082Z,31.75
2022-09-03T10:07:47.058Z,31.96
2022-09-03T10:08:47.058Z,32.09
2022-09-03T10:09:47.014Z,33.21
2022-09-03T10:10:47.002Z,34.43
2022-09-03T10:11:46.987Z,34.64
2022-09-03T10:12:46.965Z,34.45
2022-09-03T10:13:46.989Z,34.73
2022-09-03T10:14:46.929Z,34.20
2022-09-03T10:15:46.950Z,32.35
2022-09-03T10:16:46.899Z,32.34
2022-09-03T10:17:46.890Z,31.75
2022-09-03T10:18:46.904Z,31.86
2022-09-03T10:19:46.840Z,33.04
2022-09-03T10:20:46.821Z,32.85
2022-09-03T10:21:46.819Z,32.57
2022-09-03T10:22:56.246Z,33.18
2022-09-03T10:23:47.828Z,32.88
2022-09-03T10:24:46.767Z,33.00
2022-09-03T10:25:46.760Z,33.80
2022-09-03T10:26:46.745Z,33.79
2022-09-03T10:27:47.725Z,33.90
2022-09-03T10:28:46.716Z,33.21
2022-09-03T10:29:46.726Z,33.80
2022-09-03T10:30:46.710Z,34.03
2022-09-03T10:31:46.657Z,34.10
2022-09-03T10:32:48.558Z,32.88
2022-09-03T10:33:47.626Z,32.77
2022-09-03T10:34:46.653Z,31.73
2022-09-03T10:35:46.613Z,30.13
2022-09-03T10:36:46.578Z,29.51
2022-09-03T10:37:46.574Z,29.61
2022-09-03T10:38:46.582Z,30.00
2022-09-03T10:39:51.544Z,29.77
2022-09-03T10:40:48.532Z,28.97
2022-09-03T10:41:46.501Z,28.50
2022-09-03T10:42:46.509Z,29.71
2022-09-03T10:43:46.468Z,29.79
2022-09-03T10:44:46.484Z,28.89
2022-09-03T10:45:46.444Z,28.89
2022-09-03T10:46:46.490Z,29.20
2022-09-03T10:47:46.504Z,29.51
2022-09-03T10:48:46.404Z,30.21
2022-09-03T10:49:46.409Z,30.19
2022-09-03T10:50:46.363Z,30.00
2022-09-03T10:51:49.554Z,30.21
2022-09-03T10:52:47.354Z,30.21
2022-09-03T10:53:46.324Z,30.72
2022-09-03T10:54:46.336Z,31.04
2022-09-03T10:55:46.292Z,31.24
2022-09-03T10:56:46.269Z,32.34
2022-09-03T10:57:46.255Z,32.35
2022-09-03T10:58:46.231Z,32.56
2022-09-03T10:59:46.267Z,32.88
2022-09-03T11:00:46.229Z,33.11
2022-09-03T11:01:46.260Z,33.62
2022-09-03T11:02:46.254Z,33.82
2022-09-03T11:03:46.167Z,33.80
2022-09-03T11:04:46.192Z,33.54
2022-09-03T11:05:46.153Z,33.82
2022-09-03T11:06:46.109Z,33.92
2022-09-03T11:07:46.115Z,34.12
2022-09-03T11:08:46.073Z,33.62
2022-09-03T11:09:46.089Z,33.75
2022-09-03T11:10:46.054Z,34.95
2022-09-03T11:11:46.041Z,34.76
2022-09-03T11:12:46.028Z,34.95
2022-09-03T11:13:46.006Z,35.06
2022-09-03T11:14:46.013Z,34.68
2022-09-03T11:15:46.027Z,35.41
2022-09-03T11:16:46.952Z,35.72
2022-09-03T11:17:45.931Z,35.92
2022-09-03T11:18:45.934Z,36.13
2022-09-03T11:19:45.948Z,36.04
2022-09-03T11:20:45.896Z,36.93
2022-09-03T11:21:45.867Z,36.83
2022-09-03T11:22:45.883Z,36.53
2022-09-03T11:23:45.834Z,36.81
2022-09-03T11:24:45.874Z,35.60
2022-09-03T11:25:45.800Z,35.88
2022-09-03T11:26:45.898Z,35.69
2022-09-03T11:27:45.781Z,34.31
2022-09-03T11:28:45.809Z,35.80
2022-09-03T11:29:45.760Z,36.00
2022-09-03T11:30:45.767Z,35.71
2022-09-03T11:31:45.720Z,35.82
2022-09-03T11:32:45.699Z,35.94
2022-09-03T11:33:45.742Z,36.13
2022-09-03T11:34:45.680Z,35.74
2022-09-03T11:35:45.662Z,36.13
2022-09-03T11:36:48.033Z,36.35
2022-09-03T11:37:46.643Z,37.24
2022-09-03T11:38:45.662Z,36.85
2022-09-03T11:39:45.638Z,37.54
2022-09-03T11:40:45.582Z,37.52
2022-09-03T11:41:45.553Z,36.93
2022-09-03T11:42:45.541Z,36.63
2022-09-03T11:43:45.536Z,36.45
2022-09-03T11:44:51.733Z,36.85
2022-09-03T11:45:46.533Z,37.64
2022-09-03T11:46:45.492Z,36.77
2022-09-03T11:47:45.472Z,37.16
2022-09-03T11:48:45.445Z,36.87
2022-09-03T11:49:45.458Z,37.26
2022-09-03T11:50:45.432Z,37.06
2022-09-03T11:51:45.413Z,37.26
2022-09-03T11:52:45.391Z,37.96
2022-09-03T11:53:45.362Z,37.15
2022-09-03T11:54:45.376Z,37.24
2022-09-03T11:55:45.339Z,37.24
2022-09-03T11:56:45.326Z,36.75
2022-09-03T11:57:45.307Z,37.15
2022-09-03T11:58:45.295Z,38.16
2022-09-03T11:59:45.306Z,36.87
2022-09-03T12:00:45.270Z,38.45
2022-09-03T12:01:45.236Z,37.36
2022-09-03T12:02:45.303Z,38.06
2022-09-03T12:03:45.225Z,38.37
2022-09-03T12:04:45.325Z,38.09
2022-09-03T12:05:45.177Z,38.39
2022-09-03T12:06:45.157Z,38.87
2022-09-03T12:07:45.153Z,37.77
2022-09-03T12:08:45.126Z,37.98
2022-09-03T12:09:45.138Z,37.58
2022-09-03T12:10:45.089Z,38.18
2022-09-03T12:11:45.076Z,37.77
2022-09-03T12:12:45.082Z,38.28
2022-09-03T12:13:45.056Z,37.28
2022-09-03T12:14:45.065Z,37.06
2022-09-03T12:15:45.044Z,37.56
2022-09-03T12:16:45.008Z,36.66
2022-09-03T12:17:44.980Z,37.54
2022-09-03T12:18:44.971Z,37.54
2022-09-03T12:19:44.975Z,36.65
2022-09-03T12:20:44.946Z,36.85
2022-09-03T12:21:44.941Z,37.06
2022-09-03T12:22:44.959Z,37.26
2022-09-03T12:23:44.909Z,37.15
2022-09-03T12:24:44.916Z,37.24
2022-09-03T12:25:44.865Z,37.24
2022-09-03T12:26:44.833Z,37.24
2022-09-03T12:27:44.869Z,37.54
2022-09-03T12:28:44.898Z,36.85
2022-09-03T12:29:44.792Z,36.35
2022-09-03T12:30:44.906Z,37.06
2022-09-03T12:31:44.756Z,37.54
2022-09-03T12:32:44.737Z,37.34
2022-09-03T12:33:44.777Z,37.03
2022-09-03T12:34:44.722Z,36.65
2022-09-03T12:36:00.548Z,37.45
2022-09-03T12:36:46.676Z,37.04
2022-09-03T12:39:10.508Z,37.15
2022-09-03T12:41:46.678Z,37.36
2022-09-03T12:42:44.594Z,38.16
2022-09-03T12:43:49.846Z,37.98
2022-09-03T12:44:46.570Z,38.28
2022-09-03T12:46:46.670Z,38.37
2022-09-03T12:47:44.582Z,38.49
2022-09-03T12:48:44.771Z,38.57
2022-09-03T12:49:44.498Z,38.07
2022-09-03T12:50:49.431Z,38.57
2022-09-03T12:51:49.838Z,38.67
2022-09-03T12:52:46.436Z,38.18
2022-09-03T12:53:44.448Z,38.67
2022-09-03T12:54:45.838Z,38.79
2022-09-03T12:55:45.388Z,38.37
2022-09-03T12:56:44.367Z,38.37